sensor_id;sensor_type;location;lat;lon;timestamp;P1;durP1;ratioP1;P2;durP2;ratioP2
2458;SDS011;1241;50.920;6.936;2022-12-07T00:01:21;46.17;;;32.77;;
2458;SDS011;1241;50.920;6.936;2022-12-07T00:03:52;39.33;;;26.85;;
2458;SDS011;1241;50.920;6.936;2022-12-07T00:06:20;44.08;;;29.40;;
2458;SDS011;1241;50.920;6.936;2022-12-07T00:08:46;37.05;;;27.20;;
2458;SDS011;1241;50.920;6.936;2022-12-07T00:11:13;39.72;;;30.52;;
2458;SDS011;1241;50.920;6.936;2022-12-07T00:13:41;35.72;;;27.90;;
2458;SDS011;1241;50.920;6.936;2022-12-07T00:16:11;43.78;;;33.28;;
2458;SDS011;1241;50.920;6.936;2022-12-07T00:18:38;37.10;;;26.48;;
2458;SDS011;1241;50.920;6.936;2022-12-07T00:21:08;40.50;;;28.83;;
2458;SDS011;1241;50.920;6.936;2022-12-07T00:23:39;47.35;;;35.38;;
2458;SDS011;1241;50.920;6.936;2022-12-07T00:26:10;37.00;;;26.58;;
2458;SDS011;1241;50.920;6.936;2022-12-07T00:28:40;51.38;;;33.95;;
2458;SDS011;1241;50.920;6.936;2022-12-07T00:31:11;40.35;;;29.85;;
2458;SDS011;1241;50.920;6.936;2022-12-07T00:33:37;39.33;;;28.23;;
2458;SDS011;1241;50.920;6.936;2022-12-07T00:36:04;48.20;;;33.70;;
2458;SDS011;1241;50.920;6.936;2022-12-07T00:38:33;41.55;;;33.03;;
2458;SDS011;1241;50.920;6.936;2022-12-07T00:41:04;43.22;;;31.73;;
2458;SDS011;1241;50.920;6.936;2022-12-07T00:43:31;45.78;;;30.95;;
2458;SDS011;1241;50.920;6.936;2022-12-07T00:45:58;42.63;;;29.33;;
2458;SDS011;1241;50.920;6.936;2022-12-07T00:48:24;47.53;;;32.40;;
2458;SDS011;1241;50.920;6.936;2022-12-07T00:50:50;49.90;;;38.35;;
2458;SDS011;1241;50.920;6.936;2022-12-07T00:53:16;56.85;;;35.60;;
2458;SDS011;1241;50.920;6.936;2022-12-07T00:55:42;47.33;;;32.17;;
2458;SDS011;1241;50.920;6.936;2022-12-07T00:58:09;42.72;;;30.85;;
2458;SDS011;1241;50.920;6.936;2022-12-07T01:00:35;47.83;;;31.52;;
2458;SDS011;1241;50.920;6.936;2022-12-07T01:03:03;40.10;;;27.90;;
2458;SDS011;1241;50.920;6.936;2022-12-07T01:05:29;45.78;;;31.80;;
2458;SDS011;1241;50.920;6.936;2022-12-07T01:07:55;40.73;;;29.30;;
2458;SDS011;1241;50.920;6.936;2022-12-07T01:10:21;42.03;;;28.67;;
2458;SDS011;1241;50.920;6.936;2022-12-07T01:12:47;46.40;;;33.00;;
2458;SDS011;1241;50.920;6.936;2022-12-07T01:15:13;46.53;;;31.57;;
2458;SDS011;1241;50.920;6.936;2022-12-07T01:17:39;45.08;;;32.35;;
2458;SDS011;1241;50.920;6.936;2022-12-07T01:20:05;42.33;;;29.70;;
2458;SDS011;1241;50.920;6.936;2022-12-07T01:22:31;48.00;;;32.65;;
2458;SDS011;1241;50.920;6.936;2022-12-07T01:25:01;38.67;;;27.35;;
2458;SDS011;1241;50.920;6.936;2022-12-07T01:27:26;40.73;;;30.77;;
2458;SDS011;1241;50.920;6.936;2022-12-07T01:29:52;37.00;;;28.33;;
2458;SDS011;1241;50.920;6.936;2022-12-07T01:32:18;40.77;;;29.40;;
2458;SDS011;1241;50.920;6.936;2022-12-07T01:34:43;36.90;;;28.07;;
2458;SDS011;1241;50.920;6.936;2022-12-07T01:37:09;40.97;;;27.57;;
2458;SDS011;1241;50.920;6.936;2022-12-07T01:39:35;41.33;;;30.60;;
2458;SDS011;1241;50.920;6.936;2022-12-07T01:42:01;43.30;;;31.30;;
2458;SDS011;1241;50.920;6.936;2022-12-07T01:44:29;44.00;;;31.00;;
2458;SDS011;1241;50.920;6.936;2022-12-07T01:46:57;36.42;;;27.80;;
2458;SDS011;1241;50.920;6.936;2022-12-07T01:49:33;36.97;;;28.38;;
2458;SDS011;1241;50.920;6.936;2022-12-07T01:52:03;40.72;;;30.33;;
2458;SDS011;1241;50.920;6.936;2022-12-07T01:54:32;35.95;;;27.60;;
2458;SDS011;1241;50.920;6.936;2022-12-07T01:56:58;37.65;;;28.30;;
2458;SDS011;1241;50.920;6.936;2022-12-07T01:59:24;49.80;;;34.22;;
2458;SDS011;1241;50.920;6.936;2022-12-07T02:01:52;51.60;;;33.63;;
2458;SDS011;1241;50.920;6.936;2022-12-07T02:04:19;48.90;;;34.33;;
2458;SDS011;1241;50.920;6.936;2022-12-07T02:06:46;43.72;;;31.13;;
2458;SDS011;1241;50.920;6.936;2022-12-07T02:09:12;43.47;;;31.10;;
2458;SDS011;1241;50.920;6.936;2022-12-07T02:11:38;40.87;;;29.17;;
2458;SDS011;1241;50.920;6.936;2022-12-07T02:14:05;43.67;;;29.83;;
2458;SDS011;1241;50.920;6.936;2022-12-07T02:16:38;43.00;;;30.63;;
2458;SDS011;1241;50.920;6.936;2022-12-07T02:22:03;43.42;;;30.05;;
2458;SDS011;1241;50.920;6.936;2022-12-07T02:24:57;47.22;;;30.40;;
2458;SDS011;1241;50.920;6.936;2022-12-07T02:30:09;40.97;;;29.42;;
2458;SDS011;1241;50.920;6.936;2022-12-07T02:32:57;43.25;;;28.67;;
2458;SDS011;1241;50.920;6.936;2022-12-07T02:35:33;43.17;;;30.75;;
2458;SDS011;1241;50.920;6.936;2022-12-07T02:38:25;45.25;;;28.27;;
2458;SDS011;1241;50.920;6.936;2022-12-07T02:41:06;39.20;;;28.17;;
2458;SDS011;1241;50.920;6.936;2022-12-07T02:43:49;42.13;;;31.30;;
2458;SDS011;1241;50.920;6.936;2022-12-07T02:46:22;39.78;;;28.02;;
2458;SDS011;1241;50.920;6.936;2022-12-07T02:48:51;43.88;;;30.52;;
2458;SDS011;1241;50.920;6.936;2022-12-07T02:51:18;43.53;;;31.67;;
2458;SDS011;1241;50.920;6.936;2022-12-07T02:53:44;43.40;;;30.27;;
2458;SDS011;1241;50.920;6.936;2022-12-07T02:56:16;33.77;;;27.60;;
2458;SDS011;1241;50.920;6.936;2022-12-07T03:07:04;42.88;;;32.38;;
2458;SDS011;1241;50.920;6.936;2022-12-07T03:09:37;44.83;;;29.58;;
2458;SDS011;1241;50.920;6.936;2022-12-07T03:12:12;43.22;;;29.60;;
2458;SDS011;1241;50.920;6.936;2022-12-07T03:14:49;44.28;;;32.35;;
2458;SDS011;1241;50.920;6.936;2022-12-07T03:17:43;43.05;;;30.45;;
2458;SDS011;1241;50.920;6.936;2022-12-07T03:20:13;45.25;;;31.20;;
2458;SDS011;1241;50.920;6.936;2022-12-07T03:22:41;44.13;;;30.10;;
2458;SDS011;1241;50.920;6.936;2022-12-07T03:25:10;41.65;;;30.83;;
2458;SDS011;1241;50.920;6.936;2022-12-07T03:30:27;41.28;;;28.65;;
2458;SDS011;1241;50.920;6.936;2022-12-07T03:33:06;37.80;;;27.55;;
2458;SDS011;1241;50.920;6.936;2022-12-07T03:35:44;44.30;;;28.85;;
2458;SDS011;1241;50.920;6.936;2022-12-07T03:38:23;41.05;;;28.20;;
2458;SDS011;1241;50.920;6.936;2022-12-07T03:40:57;48.47;;;30.92;;
2458;SDS011;1241;50.920;6.936;2022-12-07T03:43:29;41.42;;;27.60;;
2458;SDS011;1241;50.920;6.936;2022-12-07T03:46:09;40.95;;;28.27;;
2458;SDS011;1241;50.920;6.936;2022-12-07T03:55:27;40.55;;;28.20;;
2458;SDS011;1241;50.920;6.936;2022-12-07T03:57:51;36.13;;;27.67;;
2458;SDS011;1241;50.920;6.936;2022-12-07T04:00:20;42.78;;;29.20;;
2458;SDS011;1241;50.920;6.936;2022-12-07T04:02:48;42.40;;;26.35;;
2458;SDS011;1241;50.920;6.936;2022-12-07T04:05:17;41.88;;;27.77;;
2458;SDS011;1241;50.920;6.936;2022-12-07T04:07:43;40.87;;;28.30;;
2458;SDS011;1241;50.920;6.936;2022-12-07T04:10:09;38.42;;;27.15;;
2458;SDS011;1241;50.920;6.936;2022-12-07T04:12:35;38.45;;;27.80;;
2458;SDS011;1241;50.920;6.936;2022-12-07T04:15:01;34.73;;;25.60;;
2458;SDS011;1241;50.920;6.936;2022-12-07T04:17:27;42.13;;;28.58;;
2458;SDS011;1241;50.920;6.936;2022-12-07T04:19:53;36.90;;;27.27;;
2458;SDS011;1241;50.920;6.936;2022-12-07T04:22:19;35.03;;;25.42;;
2458;SDS011;1241;50.920;6.936;2022-12-07T04:24:45;41.53;;;27.93;;
2458;SDS011;1241;50.920;6.936;2022-12-07T04:27:11;36.00;;;28.03;;
2458;SDS011;1241;50.920;6.936;2022-12-07T04:29:36;38.47;;;31.13;;
2458;SDS011;1241;50.920;6.936;2022-12-07T04:32:02;37.90;;;29.10;;
2458;SDS011;1241;50.920;6.936;2022-12-07T04:34:28;40.03;;;27.47;;
2458;SDS011;1241;50.920;6.936;2022-12-07T04:36:54;39.20;;;26.58;;
2458;SDS011;1241;50.920;6.936;2022-12-07T04:39:25;41.67;;;28.73;;
2458;SDS011;1241;50.920;6.936;2022-12-07T04:41:52;38.10;;;27.23;;
2458;SDS011;1241;50.920;6.936;2022-12-07T04:44:19;36.58;;;26.30;;
2458;SDS011;1241;50.920;6.936;2022-12-07T04:46:45;43.65;;;27.48;;
2458;SDS011;1241;50.920;6.936;2022-12-07T04:49:11;39.47;;;27.13;;
2458;SDS011;1241;50.920;6.936;2022-12-07T04:51:38;43.03;;;28.45;;
2458;SDS011;1241;50.920;6.936;2022-12-07T04:54:04;40.60;;;29.05;;
2458;SDS011;1241;50.920;6.936;2022-12-07T04:56:30;47.07;;;30.57;;
2458;SDS011;1241;50.920;6.936;2022-12-07T04:58:57;36.72;;;26.80;;
2458;SDS011;1241;50.920;6.936;2022-12-07T05:01:23;34.00;;;25.93;;
2458;SDS011;1241;50.920;6.936;2022-12-07T05:03:48;43.70;;;29.80;;
2458;SDS011;1241;50.920;6.936;2022-12-07T05:06:15;44.20;;;26.55;;
2458;SDS011;1241;50.920;6.936;2022-12-07T05:08:41;35.05;;;26.60;;
2458;SDS011;1241;50.920;6.936;2022-12-07T05:11:08;33.55;;;25.55;;
2458;SDS011;1241;50.920;6.936;2022-12-07T05:13:35;41.10;;;30.38;;
2458;SDS011;1241;50.920;6.936;2022-12-07T05:16:01;38.50;;;25.40;;
2458;SDS011;1241;50.920;6.936;2022-12-07T05:18:27;35.27;;;24.33;;
2458;SDS011;1241;50.920;6.936;2022-12-07T05:20:53;36.20;;;25.70;;
2458;SDS011;1241;50.920;6.936;2022-12-07T05:23:18;38.57;;;26.90;;
2458;SDS011;1241;50.920;6.936;2022-12-07T05:25:45;35.40;;;27.05;;
2458;SDS011;1241;50.920;6.936;2022-12-07T05:28:11;35.30;;;25.55;;
2458;SDS011;1241;50.920;6.936;2022-12-07T05:30:37;30.40;;;23.07;;
2458;SDS011;1241;50.920;6.936;2022-12-07T05:33:02;34.90;;;27.37;;
2458;SDS011;1241;50.920;6.936;2022-12-07T05:35:28;36.53;;;25.87;;
2458;SDS011;1241;50.920;6.936;2022-12-07T05:37:54;37.67;;;27.07;;
2458;SDS011;1241;50.920;6.936;2022-12-07T05:40:20;33.75;;;26.02;;
2458;SDS011;1241;50.920;6.936;2022-12-07T05:42:46;36.10;;;26.03;;
2458;SDS011;1241;50.920;6.936;2022-12-07T05:45:12;43.57;;;27.33;;
2458;SDS011;1241;50.920;6.936;2022-12-07T05:47:37;35.87;;;25.60;;
2458;SDS011;1241;50.920;6.936;2022-12-07T05:50:04;36.63;;;26.83;;
2458;SDS011;1241;50.920;6.936;2022-12-07T05:52:30;36.22;;;25.00;;
2458;SDS011;1241;50.920;6.936;2022-12-07T05:54:56;39.47;;;26.10;;
2458;SDS011;1241;50.920;6.936;2022-12-07T05:57:22;34.50;;;27.60;;
2458;SDS011;1241;50.920;6.936;2022-12-07T05:59:48;37.57;;;25.77;;
2458;SDS011;1241;50.920;6.936;2022-12-07T06:02:14;38.63;;;27.27;;
2458;SDS011;1241;50.920;6.936;2022-12-07T06:04:44;34.75;;;24.48;;
2458;SDS011;1241;50.920;6.936;2022-12-07T06:07:12;33.22;;;25.52;;
2458;SDS011;1241;50.920;6.936;2022-12-07T06:09:39;39.10;;;27.15;;
2458;SDS011;1241;50.920;6.936;2022-12-07T06:12:06;38.13;;;27.30;;
2458;SDS011;1241;50.920;6.936;2022-12-07T06:14:52;43.65;;;28.90;;
2458;SDS011;1241;50.920;6.936;2022-12-07T06:17:18;41.20;;;28.33;;
2458;SDS011;1241;50.920;6.936;2022-12-07T06:19:44;44.00;;;29.83;;
2458;SDS011;1241;50.920;6.936;2022-12-07T06:22:10;40.83;;;27.93;;
2458;SDS011;1241;50.920;6.936;2022-12-07T06:24:37;41.53;;;28.52;;
2458;SDS011;1241;50.920;6.936;2022-12-07T06:27:03;44.20;;;29.98;;
2458;SDS011;1241;50.920;6.936;2022-12-07T06:29:30;41.85;;;27.90;;
2458;SDS011;1241;50.920;6.936;2022-12-07T06:31:55;44.30;;;30.60;;
2458;SDS011;1241;50.920;6.936;2022-12-07T06:34:21;41.25;;;29.30;;
2458;SDS011;1241;50.920;6.936;2022-12-07T06:36:48;41.03;;;27.92;;
2458;SDS011;1241;50.920;6.936;2022-12-07T06:39:17;46.25;;;31.27;;
2458;SDS011;1241;50.920;6.936;2022-12-07T06:41:44;43.20;;;29.50;;
2458;SDS011;1241;50.920;6.936;2022-12-07T06:44:10;42.17;;;30.92;;
2458;SDS011;1241;50.920;6.936;2022-12-07T06:46:35;43.63;;;30.83;;
2458;SDS011;1241;50.920;6.936;2022-12-07T06:49:02;39.80;;;30.23;;
2458;SDS011;1241;50.920;6.936;2022-12-07T06:51:28;38.30;;;26.88;;
2458;SDS011;1241;50.920;6.936;2022-12-07T06:53:55;45.50;;;32.60;;
2458;SDS011;1241;50.920;6.936;2022-12-07T06:56:20;45.65;;;29.60;;
2458;SDS011;1241;50.920;6.936;2022-12-07T06:58:47;41.58;;;27.77;;
2458;SDS011;1241;50.920;6.936;2022-12-07T07:01:14;39.03;;;29.65;;
2458;SDS011;1241;50.920;6.936;2022-12-07T07:03:42;43.97;;;28.58;;
2458;SDS011;1241;50.920;6.936;2022-12-07T07:06:08;46.30;;;33.33;;
2458;SDS011;1241;50.920;6.936;2022-12-07T07:08:34;44.10;;;34.23;;
2458;SDS011;1241;50.920;6.936;2022-12-07T07:11:00;50.38;;;36.03;;
2458;SDS011;1241;50.920;6.936;2022-12-07T07:13:27;40.63;;;29.13;;
2458;SDS011;1241;50.920;6.936;2022-12-07T07:15:53;43.77;;;30.13;;
2458;SDS011;1241;50.920;6.936;2022-12-07T07:18:19;42.60;;;30.10;;
2458;SDS011;1241;50.920;6.936;2022-12-07T07:20:45;43.13;;;31.10;;
2458;SDS011;1241;50.920;6.936;2022-12-07T07:23:11;42.27;;;29.20;;
2458;SDS011;1241;50.920;6.936;2022-12-07T07:25:37;39.10;;;30.20;;
2458;SDS011;1241;50.920;6.936;2022-12-07T07:28:03;39.50;;;30.58;;
2458;SDS011;1241;50.920;6.936;2022-12-07T07:30:29;44.47;;;31.30;;
2458;SDS011;1241;50.920;6.936;2022-12-07T07:32:58;39.75;;;28.83;;
2458;SDS011;1241;50.920;6.936;2022-12-07T07:35:25;43.10;;;29.25;;
2458;SDS011;1241;50.920;6.936;2022-12-07T07:37:52;44.50;;;30.50;;
2458;SDS011;1241;50.920;6.936;2022-12-07T07:40:18;40.90;;;29.00;;
2458;SDS011;1241;50.920;6.936;2022-12-07T07:42:46;46.47;;;30.37;;
2458;SDS011;1241;50.920;6.936;2022-12-07T07:45:16;45.40;;;32.97;;
2458;SDS011;1241;50.920;6.936;2022-12-07T07:47:42;42.08;;;32.03;;
2458;SDS011;1241;50.920;6.936;2022-12-07T07:50:08;44.50;;;29.50;;
2458;SDS011;1241;50.920;6.936;2022-12-07T07:52:34;41.40;;;29.13;;
2458;SDS011;1241;50.920;6.936;2022-12-07T07:55:00;45.97;;;32.13;;
2458;SDS011;1241;50.920;6.936;2022-12-07T07:57:25;45.43;;;30.83;;
2458;SDS011;1241;50.920;6.936;2022-12-07T07:59:52;41.15;;;30.90;;
2458;SDS011;1241;50.920;6.936;2022-12-07T08:02:19;54.37;;;32.70;;
2458;SDS011;1241;50.920;6.936;2022-12-07T08:04:46;43.10;;;31.40;;
2458;SDS011;1241;50.920;6.936;2022-12-07T08:07:12;46.17;;;31.80;;
2458;SDS011;1241;50.920;6.936;2022-12-07T08:09:38;41.78;;;29.95;;
2458;SDS011;1241;50.920;6.936;2022-12-07T08:12:04;46.17;;;31.90;;
2458;SDS011;1241;50.920;6.936;2022-12-07T08:14:30;45.17;;;28.50;;
2458;SDS011;1241;50.920;6.936;2022-12-07T08:16:56;45.17;;;28.80;;
2458;SDS011;1241;50.920;6.936;2022-12-07T08:19:21;41.40;;;31.87;;
2458;SDS011;1241;50.920;6.936;2022-12-07T08:21:47;37.53;;;25.33;;
2458;SDS011;1241;50.920;6.936;2022-12-07T08:24:13;32.97;;;25.87;;
2458;SDS011;1241;50.920;6.936;2022-12-07T08:26:39;30.30;;;23.35;;
2458;SDS011;1241;50.920;6.936;2022-12-07T08:29:05;34.80;;;23.30;;
2458;SDS011;1241;50.920;6.936;2022-12-07T08:31:31;38.90;;;23.63;;
2458;SDS011;1241;50.920;6.936;2022-12-07T08:33:56;34.53;;;23.33;;
2458;SDS011;1241;50.920;6.936;2022-12-07T08:36:22;32.42;;;24.15;;
2458;SDS011;1241;50.920;6.936;2022-12-07T08:38:48;29.30;;;20.73;;
2458;SDS011;1241;50.920;6.936;2022-12-07T08:41:15;30.05;;;21.85;;
2458;SDS011;1241;50.920;6.936;2022-12-07T08:43:41;27.70;;;20.20;;
2458;SDS011;1241;50.920;6.936;2022-12-07T08:46:11;31.65;;;22.48;;
2458;SDS011;1241;50.920;6.936;2022-12-07T08:48:51;27.73;;;20.60;;
2458;SDS011;1241;50.920;6.936;2022-12-07T08:51:21;26.35;;;19.05;;
2458;SDS011;1241;50.920;6.936;2022-12-07T08:53:48;25.95;;;20.80;;
2458;SDS011;1241;50.920;6.936;2022-12-07T08:56:15;30.20;;;19.90;;
2458;SDS011;1241;50.920;6.936;2022-12-07T08:58:41;27.10;;;19.90;;
2458;SDS011;1241;50.920;6.936;2022-12-07T09:01:08;30.83;;;19.75;;
2458;SDS011;1241;50.920;6.936;2022-12-07T09:03:33;24.37;;;20.50;;
2458;SDS011;1241;50.920;6.936;2022-12-07T09:05:59;31.40;;;20.00;;
2458;SDS011;1241;50.920;6.936;2022-12-07T09:08:30;24.35;;;19.10;;
2458;SDS011;1241;50.920;6.936;2022-12-07T09:10:59;24.60;;;20.02;;
2458;SDS011;1241;50.920;6.936;2022-12-07T09:13:25;22.17;;;18.60;;
2458;SDS011;1241;50.920;6.936;2022-12-07T09:15:51;21.80;;;17.03;;
2458;SDS011;1241;50.920;6.936;2022-12-07T09:18:17;25.50;;;18.17;;
2458;SDS011;1241;50.920;6.936;2022-12-07T09:20:43;26.00;;;17.73;;
2458;SDS011;1241;50.920;6.936;2022-12-07T09:23:08;24.30;;;17.43;;
2458;SDS011;1241;50.920;6.936;2022-12-07T09:25:34;22.93;;;17.13;;
2458;SDS011;1241;50.920;6.936;2022-12-07T09:28:00;25.90;;;17.50;;
2458;SDS011;1241;50.920;6.936;2022-12-07T09:30:26;24.90;;;17.27;;
2458;SDS011;1241;50.920;6.936;2022-12-07T09:32:53;23.67;;;16.38;;
2458;SDS011;1241;50.920;6.936;2022-12-07T09:35:20;19.90;;;16.20;;
2458;SDS011;1241;50.920;6.936;2022-12-07T09:37:46;24.88;;;18.17;;
2458;SDS011;1241;50.920;6.936;2022-12-07T09:40:14;26.02;;;18.85;;
2458;SDS011;1241;50.920;6.936;2022-12-07T09:42:42;23.23;;;17.17;;
2458;SDS011;1241;50.920;6.936;2022-12-07T09:45:32;28.17;;;17.48;;
2458;SDS011;1241;50.920;6.936;2022-12-07T09:48:00;20.83;;;15.05;;
2458;SDS011;1241;50.920;6.936;2022-12-07T09:50:27;22.23;;;15.55;;
2458;SDS011;1241;50.920;6.936;2022-12-07T09:52:54;23.02;;;16.90;;
2458;SDS011;1241;50.920;6.936;2022-12-07T09:55:33;22.13;;;17.27;;
2458;SDS011;1241;50.920;6.936;2022-12-07T09:58:01;20.83;;;16.10;;
2458;SDS011;1241;50.920;6.936;2022-12-07T10:00:26;22.73;;;17.50;;
2458;SDS011;1241;50.920;6.936;2022-12-07T10:05:35;19.98;;;14.40;;
2458;SDS011;1241;50.920;6.936;2022-12-07T10:08:03;22.70;;;16.33;;
2458;SDS011;1241;50.920;6.936;2022-12-07T10:10:31;18.65;;;14.57;;
2458;SDS011;1241;50.920;6.936;2022-12-07T10:12:59;19.08;;;14.77;;
2458;SDS011;1241;50.920;6.936;2022-12-07T10:15:40;22.42;;;15.50;;
2458;SDS011;1241;50.920;6.936;2022-12-07T10:18:15;15.27;;;12.50;;
2458;SDS011;1241;50.920;6.936;2022-12-07T10:20:45;21.02;;;14.23;;
2458;SDS011;1241;50.920;6.936;2022-12-07T10:23:14;17.02;;;11.95;;
2458;SDS011;1241;50.920;6.936;2022-12-07T10:25:42;13.68;;;12.23;;
2458;SDS011;1241;50.920;6.936;2022-12-07T10:30:35;17.90;;;12.33;;
2458;SDS011;1241;50.920;6.936;2022-12-07T10:33:38;18.77;;;11.40;;
2458;SDS011;1241;50.920;6.936;2022-12-07T10:38:49;17.38;;;12.32;;
2458;SDS011;1241;50.920;6.936;2022-12-07T10:41:18;17.05;;;13.02;;
2458;SDS011;1241;50.920;6.936;2022-12-07T10:43:49;23.08;;;13.75;;
2458;SDS011;1241;50.920;6.936;2022-12-07T10:52:04;20.30;;;13.52;;
2458;SDS011;1241;50.920;6.936;2022-12-07T10:59:37;15.63;;;10.77;;
2458;SDS011;1241;50.920;6.936;2022-12-07T11:05:01;14.93;;;11.30;;
2458;SDS011;1241;50.920;6.936;2022-12-07T11:13:37;16.85;;;11.57;;
2458;SDS011;1241;50.920;6.936;2022-12-07T11:16:19;25.27;;;16.05;;
2458;SDS011;1241;50.920;6.936;2022-12-07T11:18:56;19.00;;;11.63;;
2458;SDS011;1241;50.920;6.936;2022-12-07T11:21:26;17.35;;;9.82;;
2458;SDS011;1241;50.920;6.936;2022-12-07T11:26:57;11.25;;;7.20;;
2458;SDS011;1241;50.920;6.936;2022-12-07T11:35:29;18.40;;;10.20;;
2458;SDS011;1241;50.920;6.936;2022-12-07T11:41:13;12.98;;;8.18;;
2458;SDS011;1241;50.920;6.936;2022-12-07T11:43:54;15.55;;;10.45;;
2458;SDS011;1241;50.920;6.936;2022-12-07T11:46:43;11.65;;;6.78;;
2458;SDS011;1241;50.920;6.936;2022-12-07T11:49:19;10.95;;;7.35;;
2458;SDS011;1241;50.920;6.936;2022-12-07T11:51:46;13.13;;;6.53;;
2458;SDS011;1241;50.920;6.936;2022-12-07T11:54:17;12.90;;;7.65;;
2458;SDS011;1241;50.920;6.936;2022-12-07T11:56:47;15.40;;;6.95;;
2458;SDS011;1241;50.920;6.936;2022-12-07T11:59:17;11.45;;;7.20;;
2458;SDS011;1241;50.920;6.936;2022-12-07T12:01:55;10.05;;;7.38;;
2458;SDS011;1241;50.920;6.936;2022-12-07T12:04:30;9.60;;;7.35;;
2458;SDS011;1241;50.920;6.936;2022-12-07T12:06:58;12.43;;;7.50;;
2458;SDS011;1241;50.920;6.936;2022-12-07T12:14:48;18.95;;;12.30;;
2458;SDS011;1241;50.920;6.936;2022-12-07T12:20:17;17.88;;;11.32;;
2458;SDS011;1241;50.920;6.936;2022-12-07T12:25:47;19.52;;;11.77;;
2458;SDS011;1241;50.920;6.936;2022-12-07T12:31:09;19.77;;;13.23;;
2458;SDS011;1241;50.920;6.936;2022-12-07T12:33:42;19.27;;;12.95;;
2458;SDS011;1241;50.920;6.936;2022-12-07T12:36:22;23.30;;;14.65;;
2458;SDS011;1241;50.920;6.936;2022-12-07T12:46:55;23.27;;;13.80;;
2458;SDS011;1241;50.920;6.936;2022-12-07T12:49:42;16.95;;;13.23;;
2458;SDS011;1241;50.920;6.936;2022-12-07T12:57:36;20.13;;;13.30;;
2458;SDS011;1241;50.920;6.936;2022-12-07T13:02:52;18.50;;;11.02;;
2458;SDS011;1241;50.920;6.936;2022-12-07T13:05:20;16.88;;;12.65;;
2458;SDS011;1241;50.920;6.936;2022-12-07T13:28:40;22.92;;;12.73;;
2458;SDS011;1241;50.920;6.936;2022-12-07T13:33:42;15.50;;;11.52;;
2458;SDS011;1241;50.920;6.936;2022-12-07T13:36:16;18.30;;;14.15;;
2458;SDS011;1241;50.920;6.936;2022-12-07T13:38:57;16.35;;;12.20;;
2458;SDS011;1241;50.920;6.936;2022-12-07T13:41:28;18.90;;;13.05;;
2458;SDS011;1241;50.920;6.936;2022-12-07T13:46:40;20.10;;;11.65;;
2458;SDS011;1241;50.920;6.936;2022-12-07T13:49:24;15.23;;;11.48;;
2458;SDS011;1241;50.920;6.936;2022-12-07T13:51:50;14.10;;;11.48;;
2458;SDS011;1241;50.920;6.936;2022-12-07T13:54:17;12.45;;;9.55;;
2458;SDS011;1241;50.920;6.936;2022-12-07T13:56:43;20.70;;;12.65;;
2458;SDS011;1241;50.920;6.936;2022-12-07T13:59:13;14.15;;;10.57;;
2458;SDS011;1241;50.920;6.936;2022-12-07T14:01:42;18.73;;;11.65;;
2458;SDS011;1241;50.920;6.936;2022-12-07T14:04:29;11.57;;;10.30;;
2458;SDS011;1241;50.920;6.936;2022-12-07T14:06:58;14.70;;;10.90;;
2458;SDS011;1241;50.920;6.936;2022-12-07T14:09:27;13.48;;;9.75;;
2458;SDS011;1241;50.920;6.936;2022-12-07T14:11:54;12.20;;;9.85;;
2458;SDS011;1241;50.920;6.936;2022-12-07T14:16:58;19.55;;;11.70;;
2458;SDS011;1241;50.920;6.936;2022-12-07T14:22:19;16.27;;;10.77;;
2458;SDS011;1241;50.920;6.936;2022-12-07T14:24:49;14.88;;;10.68;;
2458;SDS011;1241;50.920;6.936;2022-12-07T14:27:21;17.55;;;11.43;;
2458;SDS011;1241;50.920;6.936;2022-12-07T14:29:50;14.32;;;11.15;;
2458;SDS011;1241;50.920;6.936;2022-12-07T14:32:21;15.27;;;11.30;;
2458;SDS011;1241;50.920;6.936;2022-12-07T14:34:57;16.95;;;11.23;;
2458;SDS011;1241;50.920;6.936;2022-12-07T14:37:25;13.93;;;12.05;;
2458;SDS011;1241;50.920;6.936;2022-12-07T14:39:51;21.17;;;13.05;;
2458;SDS011;1241;50.920;6.936;2022-12-07T14:42:17;18.07;;;12.03;;
2458;SDS011;1241;50.920;6.936;2022-12-07T14:44:43;19.15;;;11.65;;
2458;SDS011;1241;50.920;6.936;2022-12-07T14:47:12;14.53;;;11.77;;
2458;SDS011;1241;50.920;6.936;2022-12-07T14:49:38;14.57;;;12.07;;
2458;SDS011;1241;50.920;6.936;2022-12-07T14:52:04;15.93;;;13.93;;
2458;SDS011;1241;50.920;6.936;2022-12-07T14:54:31;16.50;;;11.50;;
2458;SDS011;1241;50.920;6.936;2022-12-07T14:56:58;17.83;;;12.23;;
2458;SDS011;1241;50.920;6.936;2022-12-07T14:59:23;13.27;;;11.87;;
2458;SDS011;1241;50.920;6.936;2022-12-07T15:01:49;16.20;;;12.80;;
2458;SDS011;1241;50.920;6.936;2022-12-07T15:04:15;14.57;;;12.87;;
2458;SDS011;1241;50.920;6.936;2022-12-07T15:06:41;13.93;;;12.40;;
2458;SDS011;1241;50.920;6.936;2022-12-07T15:09:09;19.83;;;14.10;;
2458;SDS011;1241;50.920;6.936;2022-12-07T15:11:36;21.25;;;15.38;;
2458;SDS011;1241;50.920;6.936;2022-12-07T15:14:02;17.57;;;14.57;;
2458;SDS011;1241;50.920;6.936;2022-12-07T15:16:34;23.15;;;15.25;;
2458;SDS011;1241;50.920;6.936;2022-12-07T15:19:00;19.88;;;15.07;;
2458;SDS011;1241;50.920;6.936;2022-12-07T15:21:26;15.77;;;13.03;;
2458;SDS011;1241;50.920;6.936;2022-12-07T15:23:52;16.83;;;14.27;;
2458;SDS011;1241;50.920;6.936;2022-12-07T15:26:18;23.40;;;15.90;;
2458;SDS011;1241;50.920;6.936;2022-12-07T15:28:44;17.47;;;15.57;;
2458;SDS011;1241;50.920;6.936;2022-12-07T15:31:13;18.23;;;14.00;;
2458;SDS011;1241;50.920;6.936;2022-12-07T15:33:41;17.85;;;13.15;;
2458;SDS011;1241;50.920;6.936;2022-12-07T15:36:07;16.95;;;14.07;;
2458;SDS011;1241;50.920;6.936;2022-12-07T15:38:37;20.05;;;12.55;;
2458;SDS011;1241;50.920;6.936;2022-12-07T15:41:03;20.27;;;15.77;;
2458;SDS011;1241;50.920;6.936;2022-12-07T15:43:29;12.53;;;11.20;;
2458;SDS011;1241;50.920;6.936;2022-12-07T15:46:13;11.82;;;10.60;;
2458;SDS011;1241;50.920;6.936;2022-12-07T15:48:39;13.77;;;9.33;;
2458;SDS011;1241;50.920;6.936;2022-12-07T15:51:08;12.17;;;9.80;;
2458;SDS011;1241;50.920;6.936;2022-12-07T15:53:34;10.43;;;9.43;;
2458;SDS011;1241;50.920;6.936;2022-12-07T15:56:00;11.60;;;9.70;;
2458;SDS011;1241;50.920;6.936;2022-12-07T15:58:26;15.33;;;10.60;;
2458;SDS011;1241;50.920;6.936;2022-12-07T16:00:52;14.03;;;11.87;;
2458;SDS011;1241;50.920;6.936;2022-12-07T16:03:17;18.10;;;12.40;;
2458;SDS011;1241;50.920;6.936;2022-12-07T16:05:50;15.83;;;13.03;;
2458;SDS011;1241;50.920;6.936;2022-12-07T16:08:16;19.38;;;13.32;;
2458;SDS011;1241;50.920;6.936;2022-12-07T16:10:42;21.90;;;14.00;;
2458;SDS011;1241;50.920;6.936;2022-12-07T16:13:10;17.90;;;13.65;;
2458;SDS011;1241;50.920;6.936;2022-12-07T16:15:42;15.63;;;12.05;;
2458;SDS011;1241;50.920;6.936;2022-12-07T16:18:08;17.85;;;11.77;;
2458;SDS011;1241;50.920;6.936;2022-12-07T16:20:34;15.07;;;12.90;;
2458;SDS011;1241;50.920;6.936;2022-12-07T16:23:00;14.00;;;8.97;;
2458;SDS011;1241;50.920;6.936;2022-12-07T16:25:25;11.00;;;9.80;;
2458;SDS011;1241;50.920;6.936;2022-12-07T16:27:52;11.73;;;8.57;;
2458;SDS011;1241;50.920;6.936;2022-12-07T16:30:18;12.80;;;8.98;;
2458;SDS011;1241;50.920;6.936;2022-12-07T16:32:44;11.02;;;7.50;;
2458;SDS011;1241;50.920;6.936;2022-12-07T16:35:10;9.83;;;5.87;;
2458;SDS011;1241;50.920;6.936;2022-12-07T16:37:37;7.28;;;5.43;;
2458;SDS011;1241;50.920;6.936;2022-12-07T16:40:03;10.38;;;5.90;;
2458;SDS011;1241;50.920;6.936;2022-12-07T16:42:35;6.47;;;4.82;;
2458;SDS011;1241;50.920;6.936;2022-12-07T16:45:01;7.05;;;5.63;;
2458;SDS011;1241;50.920;6.936;2022-12-07T16:47:27;5.13;;;4.60;;
2458;SDS011;1241;50.920;6.936;2022-12-07T16:49:53;5.30;;;4.80;;
2458;SDS011;1241;50.920;6.936;2022-12-07T16:52:19;5.53;;;5.03;;
2458;SDS011;1241;50.920;6.936;2022-12-07T16:54:45;7.70;;;5.53;;
2458;SDS011;1241;50.920;6.936;2022-12-07T16:57:12;8.43;;;7.38;;
2458;SDS011;1241;50.920;6.936;2022-12-07T16:59:38;7.03;;;5.83;;
2458;SDS011;1241;50.920;6.936;2022-12-07T17:02:04;6.10;;;5.10;;
2458;SDS011;1241;50.920;6.936;2022-12-07T17:04:31;7.30;;;5.50;;